createdAt,value
2017-08-18T00:00:05.332Z,1007.92
2017-08-18T00:00:31.494Z,1007.92
2017-08-18T00:00:57.673Z,1007.94
2017-08-18T00:01:23.868Z,1007.99
2017-08-18T00:01:50.041Z,1007.98
2017-08-18T00:02:16.186Z,1007.99
2017-08-18T00:02:42.394Z,1007.98
2017-08-18T00:03:08.537Z,1007.96
2017-08-18T00:03:34.684Z,1008.02
2017-08-18T00:04:00.870Z,1008.04
2017-08-18T00:04:27.055Z,1008.03
2017-08-18T00:04:53.229Z,1008.04
2017-08-18T00:05:19.462Z,1008.02
2017-08-18T00:05:45.651Z,1008.06
2017-08-18T00:06:11.879Z,1008.09
2017-08-18T00:06:38.106Z,1008.07
2017-08-18T00:07:04.255Z,1008.03
2017-08-18T00:07:30.456Z,1008.08
2017-08-18T00:07:56.703Z,1008.08
2017-08-18T00:08:22.902Z,1008.06
2017-08-18T00:08:49.067Z,1008.06
2017-08-18T00:09:15.248Z,1008.04
2017-08-18T00:09:41.426Z,1008.01
2017-08-18T00:10:07.587Z,1007.98
2017-08-18T00:10:33.843Z,1008
2017-08-18T00:11:00.042Z,1007.98
2017-08-18T00:11:26.239Z,1007.98
2017-08-18T00:11:52.500Z,1007.99
2017-08-18T00:12:18.706Z,1007.95
2017-08-18T00:12:44.888Z,1007.98
2017-08-18T00:13:11.032Z,1007.96
2017-08-18T00:13:37.230Z,1007.98
2017-08-18T00:14:03.422Z,1008
2017-08-18T00:14:29.566Z,1007.97
2017-08-18T00:14:55.724Z,1007.97
2017-08-18T00:15:21.957Z,1008
2017-08-18T00:15:48.102Z,1008
2017-08-18T00:16:14.288Z,1007.97
2017-08-18T00:16:40.515Z,1007.98
2017-08-18T00:17:06.690Z,1008.01
2017-08-18T00:17:32.810Z,1008.01
2017-08-18T00:17:58.997Z,1008.04
2017-08-18T00:18:25.182Z,1007.98
2017-08-18T00:18:51.381Z,1007.98
2017-08-18T00:19:17.523Z,1007.98
2017-08-18T00:19:43.719Z,1008
2017-08-18T00:20:09.945Z,1008
2017-08-18T00:20:36.119Z,1008
2017-08-18T00:21:02.296Z,1008.05
2017-08-18T00:21:28.498Z,1008.04
2017-08-18T00:21:54.679Z,1008.04
2017-08-18T00:22:20.853Z,1008.04
2017-08-18T00:22:47.018Z,1007.99
2017-08-18T00:23:13.261Z,1007.96
2017-08-18T00:23:39.482Z,1008.01
2017-08-18T00:24:05.626Z,1007.97
2017-08-18T00:24:31.808Z,1007.95
2017-08-18T00:24:58.001Z,1007.93
2017-08-18T00:25:24.216Z,1007.94
2017-08-18T00:25:50.360Z,1007.93
2017-08-18T00:26:16.496Z,1007.91
2017-08-18T00:26:42.678Z,1007.94
2017-08-18T00:27:08.847Z,1007.92
2017-08-18T00:27:35.045Z,1007.94
2017-08-18T00:28:01.208Z,1007.94
2017-08-18T00:28:27.321Z,1007.97
2017-08-18T00:28:53.507Z,1007.99
2017-08-18T00:29:19.672Z,1007.98
2017-08-18T00:29:45.845Z,1007.98
2017-08-18T00:30:11.999Z,1007.99
2017-08-18T00:30:38.134Z,1007.95
2017-08-18T00:31:04.275Z,1007.96
2017-08-18T00:31:30.485Z,1007.93
2017-08-18T00:31:56.643Z,1007.89
2017-08-18T00:32:22.763Z,1007.96
2017-08-18T00:32:48.933Z,1007.9
2017-08-18T00:33:15.199Z,1007.91
2017-08-18T00:33:41.409Z,1007.97
2017-08-18T00:34:07.583Z,1007.96
2017-08-18T00:34:33.778Z,1007.94
2017-08-18T00:34:59.928Z,1007.97
2017-08-18T00:35:26.124Z,1007.94
2017-08-18T00:35:52.307Z,1007.93
2017-08-18T00:36:18.453Z,1007.9
2017-08-18T00:36:44.619Z,1007.92
2017-08-18T00:37:10.870Z,1007.92
2017-08-18T00:37:36.983Z,1007.92
2017-08-18T00:38:03.184Z,1007.95
2017-08-18T00:38:29.380Z,1007.93
2017-08-18T00:38:55.611Z,1007.97
2017-08-18T00:39:21.800Z,1007.94
2017-08-18T00:39:48.031Z,1008.01
2017-08-18T00:40:14.181Z,1007.94
2017-08-18T00:40:40.406Z,1007.92
2017-08-18T00:41:06.580Z,1007.93
2017-08-18T00:41:32.765Z,1007.94
2017-08-18T00:41:58.985Z,1007.92
2017-08-18T00:42:25.161Z,1007.91
2017-08-18T00:42:51.350Z,1007.94
2017-08-18T00:43:17.606Z,1007.91
2017-08-18T00:43:43.811Z,1007.93
2017-08-18T00:44:09.993Z,1007.89
2017-08-18T00:44:36.160Z,1007.88
2017-08-18T00:45:02.333Z,1007.87
2017-08-18T00:45:28.547Z,1007.88
2017-08-18T00:45:54.726Z,1007.86
2017-08-18T00:46:20.858Z,1007.84
2017-08-18T00:46:47.020Z,1007.86
2017-08-18T00:47:13.221Z,1007.88
2017-08-18T00:47:39.405Z,1007.84
2017-08-18T00:48:05.563Z,1007.81
2017-08-18T00:48:31.681Z,1007.83
2017-08-18T00:48:57.869Z,1007.82
2017-08-18T00:49:24.029Z,1007.83
2017-08-18T00:49:50.178Z,1007.78
2017-08-18T00:50:16.412Z,1007.8
2017-08-18T00:50:42.572Z,1007.74
2017-08-18T00:51:08.728Z,1007.76
2017-08-18T00:51:34.920Z,1007.74
2017-08-18T00:52:01.036Z,1007.73
2017-08-18T00:52:27.246Z,1007.68
2017-08-18T00:52:53.470Z,1007.71
2017-08-18T00:53:19.617Z,1007.69
2017-08-18T00:53:45.821Z,1007.66
2017-08-18T00:54:11.982Z,1007.67
2017-08-18T00:54:38.160Z,1007.67
2017-08-18T00:55:04.302Z,1007.66
2017-08-18T00:55:30.494Z,1007.64
2017-08-18T00:55:56.656Z,1007.63
2017-08-18T00:56:22.797Z,1007.62
2017-08-18T00:56:49.046Z,1007.63
2017-08-18T00:57:15.194Z,1007.65
2017-08-18T00:57:41.398Z,1007.59
2017-08-18T00:58:07.560Z,1007.63
2017-08-18T00:58:33.778Z,1007.62
2017-08-18T00:58:59.972Z,1007.59
2017-08-18T00:59:26.156Z,1007.6
2017-08-18T00:59:52.329Z,1007.59
2017-08-18T01:00:18.519Z,1007.61
2017-08-18T01:00:44.716Z,1007.61
2017-08-18T01:01:10.852Z,1007.64
2017-08-18T01:01:37.009Z,1007.58
2017-08-18T01:02:03.174Z,1007.57
2017-08-18T01:02:29.352Z,1007.59
2017-08-18T01:02:55.566Z,1007.61
2017-08-18T01:03:21.766Z,1007.63
2017-08-18T01:03:47.955Z,1007.64
2017-08-18T01:04:14.116Z,1007.6
2017-08-18T01:04:40.256Z,1007.65
2017-08-18T01:05:06.432Z,1007.61
2017-08-18T01:05:32.594Z,1007.64
2017-08-18T01:05:58.796Z,1007.62
2017-08-18T01:06:24.976Z,1007.63
2017-08-18T01:06:51.167Z,1007.65
2017-08-18T01:07:17.346Z,1007.61
2017-08-18T01:07:43.491Z,1007.61
2017-08-18T01:08:09.717Z,1007.65
2017-08-18T01:08:35.932Z,1007.6
2017-08-18T01:09:02.122Z,1007.59
2017-08-18T01:09:28.326Z,1007.57
2017-08-18T01:09:54.472Z,1007.6
2017-08-18T01:10:20.611Z,1007.61
2017-08-18T01:10:46.794Z,1007.6
2017-08-18T01:11:12.999Z,1007.58
2017-08-18T01:11:39.230Z,1007.62
2017-08-18T01:12:05.416Z,1007.59
2017-08-18T01:12:31.562Z,1007.63
2017-08-18T01:12:57.825Z,1007.63
2017-08-18T01:13:24.046Z,1007.6
2017-08-18T01:13:50.192Z,1007.62
2017-08-18T01:14:16.417Z,1007.63
2017-08-18T01:14:42.613Z,1007.61
2017-08-18T01:15:08.791Z,1007.56
2017-08-18T01:15:34.939Z,1007.62
2017-08-18T01:16:01.100Z,1007.62
2017-08-18T01:16:27.277Z,1007.6
2017-08-18T01:16:53.459Z,1007.6
2017-08-18T01:17:19.686Z,1007.63
2017-08-18T01:17:45.830Z,1007.59
2017-08-18T01:18:12.009Z,1007.61
2017-08-18T01:18:38.170Z,1007.6
2017-08-18T01:19:04.295Z,1007.6
2017-08-18T01:19:30.482Z,1007.62
2017-08-18T01:19:56.632Z,1007.6
2017-08-18T01:20:22.833Z,1007.64
2017-08-18T01:20:49.002Z,1007.62
2017-08-18T01:21:15.181Z,1007.61
2017-08-18T01:21:41.358Z,1007.64
2017-08-18T01:22:07.585Z,1007.58
2017-08-18T01:22:33.773Z,1007.61
2017-08-18T01:22:59.950Z,1007.58
2017-08-18T01:23:26.140Z,1007.58
2017-08-18T01:23:52.328Z,1007.59
2017-08-18T01:24:18.473Z,1007.61
2017-08-18T01:24:44.692Z,1007.64
2017-08-18T01:25:10.853Z,1007.63
2017-08-18T01:25:37.086Z,1007.63
2017-08-18T01:26:03.266Z,1007.6
2017-08-18T01:26:29.442Z,1007.62
2017-08-18T01:26:55.603Z,1007.59
2017-08-18T01:27:21.792Z,1007.61
2017-08-18T01:27:47.963Z,1007.62
2017-08-18T01:28:14.187Z,1007.61
2017-08-18T01:28:40.383Z,1007.59
2017-08-18T01:29:06.555Z,1007.57
2017-08-18T01:29:32.706Z,1007.58
2017-08-18T01:29:58.904Z,1007.57
2017-08-18T01:30:25.081Z,1007.57
2017-08-18T01:30:51.278Z,1007.57
2017-08-18T01:31:17.476Z,1007.55
2017-08-18T01:31:43.700Z,1007.58
2017-08-18T01:32:09.928Z,1007.56
2017-08-18T01:32:36.068Z,1007.56
2017-08-18T01:33:02.222Z,1007.56
2017-08-18T01:33:28.349Z,1007.54
2017-08-18T01:33:54.593Z,1007.54
2017-08-18T01:34:20.766Z,1007.54
2017-08-18T01:34:46.937Z,1007.52
2017-08-18T01:35:13.145Z,1007.47
2017-08-18T01:35:39.322Z,1007.5
2017-08-18T01:36:05.583Z,1007.45
2017-08-18T01:36:31.794Z,1007.47
2017-08-18T01:36:58.057Z,1007.42
2017-08-18T01:37:24.231Z,1007.45
2017-08-18T01:37:50.445Z,1007.45
2017-08-18T01:38:16.638Z,1007.45
2017-08-18T01:38:42.782Z,1007.45
2017-08-18T01:39:08.931Z,1007.46
2017-08-18T01:39:35.158Z,1007.46
2017-08-18T01:40:01.317Z,1007.42
2017-08-18T01:40:27.491Z,1007.43
2017-08-18T01:40:53.691Z,1007.47
2017-08-18T01:41:19.885Z,1007.47
2017-08-18T01:41:46.135Z,1007.46
2017-08-18T01:42:12.310Z,1007.45
2017-08-18T01:42:38.483Z,1007.45
2017-08-18T01:43:04.712Z,1007.42
2017-08-18T01:43:30.899Z,1007.4
2017-08-18T01:43:57.101Z,1007.41
2017-08-18T01:44:23.227Z,1007.4
2017-08-18T01:44:49.384Z,1007.35
2017-08-18T01:45:15.592Z,1007.38
2017-08-18T01:45:41.779Z,1007.35
2017-08-18T01:46:07.907Z,1007.36
2017-08-18T01:46:34.083Z,1007.35
2017-08-18T01:47:00.266Z,1007.32
2017-08-18T01:47:26.482Z,1007.35
2017-08-18T01:47:52.635Z,1007.36
2017-08-18T01:48:18.797Z,1007.38
2017-08-18T01:48:45.002Z,1007.36
2017-08-18T01:49:11.227Z,1007.38
2017-08-18T01:49:37.388Z,1007.39
2017-08-18T01:50:03.533Z,1007.38
2017-08-18T01:50:29.713Z,1007.34
2017-08-18T01:50:55.998Z,1007.34
2017-08-18T01:51:22.121Z,1007.35
2017-08-18T01:51:48.330Z,1007.32
2017-08-18T01:52:14.555Z,1007.35
2017-08-18T01:52:40.673Z,1007.35
2017-08-18T01:53:06.900Z,1007.33
2017-08-18T01:53:33.071Z,1007.36
2017-08-18T01:53:59.233Z,1007.38
2017-08-18T01:54:25.430Z,1007.34
2017-08-18T01:54:51.642Z,1007.36
2017-08-18T01:55:17.849Z,1007.34
2017-08-18T01:55:44.051Z,1007.33
2017-08-18T01:56:10.168Z,1007.34
2017-08-18T01:56:36.373Z,1007.34
2017-08-18T01:57:02.609Z,1007.3
2017-08-18T01:57:28.761Z,1007.35
2017-08-18T01:57:54.936Z,1007.31
2017-08-18T01:58:21.157Z,1007.34
2017-08-18T01:58:47.283Z,1007.33
2017-08-18T01:59:13.451Z,1007.34
2017-08-18T01:59:39.612Z,1007.34
2017-08-18T02:00:05.807Z,1007.31
2017-08-18T02:00:31.978Z,1007.32
2017-08-18T02:00:58.201Z,1007.3
2017-08-18T02:01:24.421Z,1007.29
2017-08-18T02:01:50.608Z,1007.25
2017-08-18T02:02:16.755Z,1007.29
2017-08-18T02:02:42.974Z,1007.23
2017-08-18T02:03:09.164Z,1007.24
2017-08-18T02:03:35.312Z,1007.19
2017-08-18T02:04:01.504Z,1007.18
2017-08-18T02:04:27.690Z,1007.18
2017-08-18T02:04:53.858Z,1007.17
2017-08-18T02:05:19.997Z,1007.12
2017-08-18T02:05:46.172Z,1007.15
2017-08-18T02:06:12.335Z,1007.16
2017-08-18T02:06:38.547Z,1007.17
2017-08-18T02:07:04.742Z,1007.17
2017-08-18T02:07:30.905Z,1007.18
2017-08-18T02:07:57.093Z,1007.14
2017-08-18T02:08:23.290Z,1007.15
2017-08-18T02:08:49.479Z,1007.14
2017-08-18T02:09:15.672Z,1007.21
2017-08-18T02:09:41.821Z,1007.24
2017-08-18T02:10:07.973Z,1007.24
2017-08-18T02:10:34.178Z,1007.24
2017-08-18T02:11:00.377Z,1007.25
2017-08-18T02:11:26.561Z,1007.28
2017-08-18T02:11:52.765Z,1007.28
2017-08-18T02:12:18.961Z,1007.26
2017-08-18T02:12:45.187Z,1007.28
2017-08-18T02:13:11.329Z,1007.32
2017-08-18T02:13:37.517Z,1007.32
2017-08-18T02:14:03.713Z,1007.32
2017-08-18T02:14:29.877Z,1007.35
2017-08-18T02:14:56.061Z,1007.32
2017-08-18T02:15:22.247Z,1007.31
2017-08-18T02:15:48.474Z,1007.35
2017-08-18T02:16:14.661Z,1007.32
2017-08-18T02:16:40.809Z,1007.36
2017-08-18T02:17:07.003Z,1007.39
2017-08-18T02:17:33.230Z,1007.36
2017-08-18T02:17:59.395Z,1007.39
2017-08-18T02:18:25.605Z,1007.38
2017-08-18T02:18:51.825Z,1007.39
2017-08-18T02:19:17.964Z,1007.39
2017-08-18T02:19:44.172Z,1007.42
2017-08-18T02:20:10.359Z,1007.45
2017-08-18T02:20:36.500Z,1007.45
2017-08-18T02:21:02.645Z,1007.43
2017-08-18T02:21:28.834Z,1007.47
2017-08-18T02:21:55.077Z,1007.46
2017-08-18T02:22:21.215Z,1007.43
2017-08-18T02:22:47.372Z,1007.47
2017-08-18T02:23:13.584Z,1007.44
2017-08-18T02:23:39.755Z,1007.45
2017-08-18T02:24:05.932Z,1007.41
2017-08-18T02:24:32.121Z,1007.38
2017-08-18T02:24:58.281Z,1007.37
2017-08-18T02:25:24.397Z,1007.37
2017-08-18T02:25:50.585Z,1007.36
2017-08-18T02:26:16.753Z,1007.35
2017-08-18T02:26:42.905Z,1007.31
2017-08-18T02:27:09.074Z,1007.32
2017-08-18T02:27:35.232Z,1007.31
2017-08-18T02:28:01.419Z,1007.27
2017-08-18T02:28:27.586Z,1007.32
2017-08-18T02:28:53.792Z,1007.27
2017-08-18T02:29:20.016Z,1007.31
2017-08-18T02:29:46.125Z,1007.32
2017-08-18T02:30:12.328Z,1007.31
2017-08-18T02:30:38.483Z,1007.29
2017-08-18T02:31:04.661Z,1007.3
2017-08-18T02:31:30.856Z,1007.28
2017-08-18T02:31:57.131Z,1007.3
2017-08-18T02:32:23.334Z,1007.26
2017-08-18T02:32:49.523Z,1007.28
2017-08-18T02:33:15.665Z,1007.24
2017-08-18T02:33:41.866Z,1007.26
2017-08-18T02:34:08.049Z,1007.26
2017-08-18T02:34:34.217Z,1007.28
2017-08-18T02:35:00.389Z,1007.28
2017-08-18T02:35:26.614Z,1007.29
2017-08-18T02:35:52.759Z,1007.28
2017-08-18T02:36:18.951Z,1007.31
2017-08-18T02:36:45.140Z,1007.32
2017-08-18T02:37:11.320Z,1007.31
2017-08-18T02:37:37.473Z,1007.34
2017-08-18T02:38:03.677Z,1007.29
2017-08-18T02:38:29.880Z,1007.29
2017-08-18T02:38:56.039Z,1007.27
2017-08-18T02:39:22.187Z,1007.28
2017-08-18T02:39:48.354Z,1007.34
2017-08-18T02:40:14.564Z,1007.31
2017-08-18T02:40:40.781Z,1007.33
2017-08-18T02:41:07.003Z,1007.33
2017-08-18T02:41:33.151Z,1007.35
2017-08-18T02:41:59.368Z,1007.36
2017-08-18T02:42:25.562Z,1007.41
2017-08-18T02:42:51.768Z,1007.4
2017-08-18T02:43:17.992Z,1007.43
2017-08-18T02:43:44.195Z,1007.47
2017-08-18T02:44:10.338Z,1007.47
2017-08-18T02:44:36.563Z,1007.47
2017-08-18T02:45:02.765Z,1007.49
2017-08-18T02:45:28.961Z,1007.56
2017-08-18T02:45:55.186Z,1007.58
2017-08-18T02:46:21.370Z,1007.55
2017-08-18T02:46:47.540Z,1007.58
2017-08-18T02:47:13.753Z,1007.55
2017-08-18T02:47:39.933Z,1007.5
2017-08-18T02:48:06.159Z,1007.49
2017-08-18T02:48:32.373Z,1007.5
2017-08-18T02:48:58.598Z,1007.46
2017-08-18T02:49:24.822Z,1007.47
2017-08-18T02:49:50.993Z,1007.42
2017-08-18T02:50:17.159Z,1007.42
2017-08-18T02:50:43.343Z,1007.38
2017-08-18T02:51:09.590Z,1007.44
2017-08-18T02:51:35.756Z,1007.4
2017-08-18T02:52:01.970Z,1007.39
2017-08-18T02:52:28.157Z,1007.4
2017-08-18T02:52:54.321Z,1007.4
2017-08-18T02:53:20.497Z,1007.41
2017-08-18T02:53:46.712Z,1007.39
2017-08-18T02:54:12.917Z,1007.37
2017-08-18T02:54:39.108Z,1007.4
2017-08-18T02:55:05.302Z,1007.4
2017-08-18T02:55:31.484Z,1007.36
2017-08-18T02:55:57.609Z,1007.34
2017-08-18T02:56:23.743Z,1007.37
2017-08-18T02:56:49.955Z,1007.33
2017-08-18T02:57:16.177Z,1007.35
2017-08-18T02:57:42.352Z,1007.35
2017-08-18T02:58:08.523Z,1007.37
2017-08-18T02:58:34.684Z,1007.36
2017-08-18T02:59:00.827Z,1007.37
2017-08-18T02:59:27.024Z,1007.32
2017-08-18T02:59:53.176Z,1007.33
2017-08-18T03:00:19.324Z,1007.31
2017-08-18T03:00:45.518Z,1007.28
2017-08-18T03:01:11.683Z,1007.26
2017-08-18T03:01:37.798Z,1007.3
2017-08-18T03:02:04.020Z,1007.28
2017-08-18T03:02:30.190Z,1007.27
2017-08-18T03:02:56.348Z,1007.26
2017-08-18T03:03:22.538Z,1007.29
2017-08-18T03:03:48.744Z,1007.25
2017-08-18T03:04:14.910Z,1007.28
2017-08-18T03:04:41.090Z,1007.25
2017-08-18T03:05:07.281Z,1007.26
2017-08-18T03:05:33.426Z,1007.2
2017-08-18T03:05:59.594Z,1007.24
2017-08-18T03:06:25.798Z,1007.22
2017-08-18T03:06:51.987Z,1007.2
2017-08-18T03:07:18.169Z,1007.2
2017-08-18T03:07:44.361Z,1007.22
2017-08-18T03:08:10.578Z,1007.23
2017-08-18T03:08:36.698Z,1007.26
2017-08-18T03:09:02.860Z,1007.25
2017-08-18T03:09:29.106Z,1007.28
2017-08-18T03:09:55.322Z,1007.26
2017-08-18T03:10:21.462Z,1007.26
2017-08-18T03:10:47.663Z,1007.27
2017-08-18T03:11:13.898Z,1007.27
2017-08-18T03:11:40.111Z,1007.26
2017-08-18T03:12:06.294Z,1007.27
2017-08-18T03:12:32.519Z,1007.22
2017-08-18T03:12:58.672Z,1007.26
2017-08-18T03:13:24.832Z,1007.31
2017-08-18T03:13:50.993Z,1007.3
2017-08-18T03:14:17.139Z,1007.34
2017-08-18T03:14:43.298Z,1007.39
2017-08-18T03:15:09.497Z,1007.33
2017-08-18T03:15:35.701Z,1007.37
2017-08-18T03:16:01.854Z,1007.36
2017-08-18T03:16:28.029Z,1007.42
2017-08-18T03:16:54.215Z,1007.44
2017-08-18T03:17:20.378Z,1007.39
2017-08-18T03:17:46.585Z,1007.42
2017-08-18T03:18:12.742Z,1007.41
2017-08-18T03:18:38.911Z,1007.39
2017-08-18T03:19:05.110Z,1007.39
2017-08-18T03:19:31.301Z,1007.39
2017-08-18T03:19:57.473Z,1007.36
2017-08-18T03:20:23.618Z,1007.33
2017-08-18T03:20:49.802Z,1007.37
2017-08-18T03:21:15.990Z,1007.34
2017-08-18T03:21:42.102Z,1007.35
2017-08-18T03:22:08.282Z,1007.34
2017-08-18T03:22:34.500Z,1007.28
2017-08-18T03:23:00.689Z,1007.29
2017-08-18T03:23:26.891Z,1007.33
2017-08-18T03:23:53.083Z,1007.29
2017-08-18T03:24:19.311Z,1007.31
2017-08-18T03:24:45.511Z,1007.31
2017-08-18T03:25:11.731Z,1007.31
2017-08-18T03:25:37.915Z,1007.32
2017-08-18T03:26:04.160Z,1007.3
2017-08-18T03:26:30.268Z,1007.33
2017-08-18T03:26:56.457Z,1007.29
2017-08-18T03:27:22.644Z,1007.28
2017-08-18T03:27:48.809Z,1007.31
2017-08-18T03:28:15.016Z,1007.3
2017-08-18T03:28:41.178Z,1007.24
2017-08-18T03:29:07.315Z,1007.25
2017-08-18T03:29:33.489Z,1007.24
2017-08-18T03:29:59.645Z,1007.24
2017-08-18T03:30:25.820Z,1007.28
2017-08-18T03:30:52.037Z,1007.25
2017-08-18T03:31:18.261Z,1007.23
2017-08-18T03:31:44.436Z,1007.21
2017-08-18T03:32:10.576Z,1007.21
2017-08-18T03:32:36.761Z,1007.2
2017-08-18T03:33:02.883Z,1007.24
2017-08-18T03:33:29.062Z,1007.23
2017-08-18T03:33:55.209Z,1007.22
2017-08-18T03:34:21.347Z,1007.22
2017-08-18T03:34:47.545Z,1007.23
2017-08-18T03:35:13.659Z,1007.21
2017-08-18T03:35:39.853Z,1007.17
2017-08-18T03:36:06.043Z,1007.17
2017-08-18T03:36:32.261Z,1007.19
2017-08-18T03:36:58.427Z,1007.18
2017-08-18T03:37:24.584Z,1007.14
2017-08-18T03:37:50.711Z,1007.17
2017-08-18T03:38:16.933Z,1007.14
2017-08-18T03:38:43.112Z,1007.11
2017-08-18T03:39:09.311Z,1007.12
2017-08-18T03:39:35.500Z,1007.07
2017-08-18T03:40:01.683Z,1007.11
2017-08-18T03:40:27.853Z,1007.1
2017-08-18T03:40:54.039Z,1007.15
2017-08-18T03:41:20.290Z,1007.14
2017-08-18T03:41:46.452Z,1007.18
2017-08-18T03:42:12.634Z,1007.12
2017-08-18T03:42:38.815Z,1007.14
2017-08-18T03:43:05.041Z,1007.11
2017-08-18T03:43:31.240Z,1007.1
2017-08-18T03:43:57.365Z,1007.12
2017-08-18T03:44:23.610Z,1007.14
2017-08-18T03:44:49.736Z,1007.13
2017-08-18T03:45:15.841Z,1007.13
2017-08-18T03:45:42.017Z,1007.09
2017-08-18T03:46:08.145Z,1007.1
2017-08-18T03:46:34.283Z,1007.08
2017-08-18T03:47:00.455Z,1007.08
2017-08-18T03:47:26.669Z,1007.08
2017-08-18T03:47:52.812Z,1007.06
2017-08-18T03:48:19.008Z,1007.07
2017-08-18T03:48:45.171Z,1007.07
2017-08-18T03:49:11.351Z,1007.09
2017-08-18T03:49:37.489Z,1007.12
2017-08-18T03:50:03.678Z,1007.08
2017-08-18T03:50:29.849Z,1007.06
2017-08-18T03:50:55.980Z,1007.08
2017-08-18T03:51:22.184Z,1007.09
2017-08-18T03:51:48.322Z,1007.1
2017-08-18T03:52:14.463Z,1007.1
2017-08-18T03:52:40.598Z,1007.11
2017-08-18T03:53:06.764Z,1007.1
2017-08-18T03:53:32.921Z,1007.14
2017-08-18T03:53:59.106Z,1007.15
2017-08-18T03:54:25.275Z,1007.12
2017-08-18T03:54:51.399Z,1007.12
2017-08-18T03:55:17.622Z,1007.13
2017-08-18T03:55:43.767Z,1007.12
2017-08-18T03:56:09.990Z,1007.17
2017-08-18T03:56:36.141Z,1007.18
2017-08-18T03:57:02.356Z,1007.2
2017-08-18T03:57:28.568Z,1007.22
2017-08-18T03:57:54.709Z,1007.2
2017-08-18T03:58:20.893Z,1007.21
2017-08-18T03:58:47.055Z,1007.21
2017-08-18T03:59:13.191Z,1007.24
2017-08-18T03:59:39.368Z,1007.18
2017-08-18T04:00:05.619Z,1007.19
2017-08-18T04:00:31.824Z,1007.18
2017-08-18T04:00:57.997Z,1007.2
2017-08-18T04:01:24.210Z,1007.27
2017-08-18T04:01:50.363Z,1007.23
2017-08-18T04:02:16.589Z,1007.26
2017-08-18T04:02:42.780Z,1007.26
2017-08-18T04:03:08.930Z,1007.26
2017-08-18T04:03:35.120Z,1007.25
2017-08-18T04:04:01.288Z,1007.24
2017-08-18T04:04:27.461Z,1007.29
2017-08-18T04:04:53.621Z,1007.29
2017-08-18T04:05:19.765Z,1007.3
2017-08-18T04:05:45.955Z,1007.34
2017-08-18T04:06:12.180Z,1007.34
2017-08-18T04:06:38.321Z,1007.32
2017-08-18T04:07:04.506Z,1007.35
2017-08-18T04:07:30.674Z,1007.43
2017-08-18T04:07:56.822Z,1007.42
2017-08-18T04:08:23.008Z,1007.42
2017-08-18T04:08:49.216Z,1007.4
2017-08-18T04:09:15.382Z,1007.4
2017-08-18T04:09:41.575Z,1007.43
2017-08-18T04:10:07.776Z,1007.33
2017-08-18T04:10:33.884Z,1007.34
2017-08-18T04:11:00.070Z,1007.35
2017-08-18T04:11:26.224Z,1007.31
2017-08-18T04:11:52.414Z,1007.23
2017-08-18T04:12:18.535Z,1007.3
2017-08-18T04:12:44.695Z,1007.3
2017-08-18T04:13:10.832Z,1007.28
2017-08-18T04:13:37.007Z,1007.3
2017-08-18T04:14:03.229Z,1007.26
2017-08-18T04:14:29.397Z,1007.29
2017-08-18T04:14:55.575Z,1007.31
2017-08-18T04:15:21.820Z,1007.31
2017-08-18T04:15:47.963Z,1007.31
2017-08-18T04:16:14.100Z,1007.3
2017-08-18T04:16:40.292Z,1007.33
2017-08-18T04:17:06.472Z,1007.32
2017-08-18T04:17:32.642Z,1007.33
2017-08-18T04:17:58.800Z,1007.31
2017-08-18T04:18:25.000Z,1007.3
2017-08-18T04:18:51.226Z,1007.25
2017-08-18T04:19:17.402Z,1007.29
2017-08-18T04:19:43.540Z,1007.28
2017-08-18T04:20:09.729Z,1007.29
2017-08-18T04:20:35.973Z,1007.29
2017-08-18T04:21:02.167Z,1007.26
2017-08-18T04:21:28.353Z,1007.25
2017-08-18T04:21:54.563Z,1007.28
2017-08-18T04:22:20.733Z,1007.26
2017-08-18T04:22:46.888Z,1007.27
2017-08-18T04:23:13.083Z,1007.26
2017-08-18T04:23:39.221Z,1007.24
2017-08-18T04:24:05.432Z,1007.27
2017-08-18T04:24:31.571Z,1007.28
2017-08-18T04:24:57.757Z,1007.25
2017-08-18T04:25:23.972Z,1007.3
2017-08-18T04:25:50.118Z,1007.27
2017-08-18T04:26:16.304Z,1007.3
2017-08-18T04:26:42.491Z,1007.31
2017-08-18T04:27:08.685Z,1007.3
2017-08-18T04:27:34.863Z,1007.33
2017-08-18T04:28:01.023Z,1007.36
2017-08-18T04:28:27.188Z,1007.32
2017-08-18T04:28:53.388Z,1007.33
2017-08-18T04:29:19.528Z,1007.35
2017-08-18T04:29:45.711Z,1007.3
2017-08-18T04:30:11.898Z,1007.27
2017-08-18T04:30:38.057Z,1007.33
2017-08-18T04:31:04.267Z,1007.3
2017-08-18T04:31:30.454Z,1007.32
2017-08-18T04:31:56.594Z,1007.35
2017-08-18T04:32:22.774Z,1007.35
2017-08-18T04:32:48.896Z,1007.36
2017-08-18T04:33:15.104Z,1007.33
2017-08-18T04:33:41.303Z,1007.32
2017-08-18T04:34:07.525Z,1007.34
2017-08-18T04:34:33.712Z,1007.32
2017-08-18T04:34:59.872Z,1007.36
2017-08-18T04:35:26.040Z,1007.31
2017-08-18T04:35:52.248Z,1007.33
2017-08-18T04:36:18.434Z,1007.33
2017-08-18T04:36:44.581Z,1007.39
2017-08-18T04:37:10.743Z,1007.39
2017-08-18T04:37:36.977Z,1007.41
2017-08-18T04:38:03.151Z,1007.38
2017-08-18T04:38:29.320Z,1007.39
2017-08-18T04:38:55.546Z,1007.34
2017-08-18T04:39:21.755Z,1007.32
2017-08-18T04:39:47.921Z,1007.34
2017-08-18T04:40:14.073Z,1007.33
2017-08-18T04:40:40.184Z,1007.3
2017-08-18T04:41:06.347Z,1007.29
2017-08-18T04:41:32.589Z,1007.25
2017-08-18T04:41:58.729Z,1007.23
2017-08-18T04:42:24.920Z,1007.23
2017-08-18T04:42:51.071Z,1007.22
2017-08-18T04:43:17.242Z,1007.2
2017-08-18T04:43:43.361Z,1007.2
2017-08-18T04:44:09.550Z,1007.22
2017-08-18T04:44:35.738Z,1007.19
2017-08-18T04:45:01.918Z,1007.15
2017-08-18T04:45:28.081Z,1007.16
2017-08-18T04:45:54.278Z,1007.12
2017-08-18T04:46:20.525Z,1007.16
2017-08-18T04:46:46.692Z,1007.14
2017-08-18T04:47:12.844Z,1007.18
2017-08-18T04:47:39.032Z,1007.17
2017-08-18T04:48:05.141Z,1007.19
2017-08-18T04:48:31.289Z,1007.21
2017-08-18T04:48:57.444Z,1007.21
2017-08-18T04:49:23.610Z,1007.17
2017-08-18T04:49:49.757Z,1007.15
2017-08-18T04:50:15.947Z,1007.17
2017-08-18T04:50:42.093Z,1007.18
2017-08-18T04:51:08.286Z,1007.15
2017-08-18T04:51:34.475Z,1007.16
2017-08-18T04:52:00.678Z,1007.21
2017-08-18T04:52:26.893Z,1007.18
2017-08-18T04:52:53.064Z,1007.2
2017-08-18T04:53:19.266Z,1007.21
2017-08-18T04:53:45.423Z,1007.2
2017-08-18T04:54:11.599Z,1007.27
2017-08-18T04:54:37.743Z,1007.24
2017-08-18T04:55:03.959Z,1007.26
2017-08-18T04:55:30.143Z,1007.26
2017-08-18T04:55:56.309Z,1007.29
2017-08-18T04:56:22.534Z,1007.29
2017-08-18T04:56:48.750Z,1007.29
2017-08-18T04:57:14.952Z,1007.32
2017-08-18T04:57:41.164Z,1007.34
2017-08-18T04:58:07.353Z,1007.33
2017-08-18T04:58:33.519Z,1007.34
2017-08-18T04:58:59.635Z,1007.34
2017-08-18T04:59:25.760Z,1007.36
2017-08-18T04:59:51.904Z,1007.33
2017-08-18T05:00:18.072Z,1007.36
2017-08-18T05:00:44.263Z,1007.32
2017-08-18T05:01:10.474Z,1007.36
2017-08-18T05:01:36.697Z,1007.33
2017-08-18T05:02:02.921Z,1007.38
2017-08-18T05:02:29.138Z,1007.38
2017-08-18T05:02:55.318Z,1007.4
2017-08-18T05:03:21.520Z,1007.35
2017-08-18T05:03:47.720Z,1007.37
2017-08-18T05:04:13.880Z,1007.37
2017-08-18T05:04:40.020Z,1007.35
2017-08-18T05:05:06.215Z,1007.36
2017-08-18T05:05:32.403Z,1007.37
2017-08-18T05:05:58.583Z,1007.36
2017-08-18T05:06:24.782Z,1007.36
2017-08-18T05:06:51.002Z,1007.36
2017-08-18T05:07:17.216Z,1007.37
2017-08-18T05:07:43.411Z,1007.33
2017-08-18T05:08:09.598Z,1007.34
2017-08-18T05:08:35.734Z,1007.33
2017-08-18T05:09:01.926Z,1007.34
2017-08-18T05:09:28.073Z,1007.34
2017-08-18T05:09:54.301Z,1007.35
2017-08-18T05:10:20.513Z,1007.37
2017-08-18T05:10:46.699Z,1007.39
2017-08-18T05:11:12.916Z,1007.41
2017-08-18T05:11:39.101Z,1007.44
2017-08-18T05:12:05.351Z,1007.41
2017-08-18T05:12:31.579Z,1007.45
2017-08-18T05:12:57.782Z,1007.51
2017-08-18T05:13:24.001Z,1007.52
2017-08-18T05:13:50.112Z,1007.49
2017-08-18T05:14:16.303Z,1007.49
2017-08-18T05:14:42.527Z,1007.53
2017-08-18T05:15:08.648Z,1007.5
2017-08-18T05:15:34.902Z,1007.53
2017-08-18T05:16:01.127Z,1007.55
2017-08-18T05:16:27.305Z,1007.59
2017-08-18T05:16:53.493Z,1007.59
2017-08-18T05:17:19.636Z,1007.54
2017-08-18T05:17:45.811Z,1007.56